Farnsfield, United Kingdom
Current Conditions -  °F | °C
As of 1:50 AM on Saturday 22 Nov 2014 (Local Time) from EGXW Reporting Station
Haze Haze  
Wind Chill:   Ceiling: 300
Heat Index:   Visibility: 1.8mi
Dew Point:   Wind: 14mph
Humidity: 100%   Direction: 150°SSE
Pressure: 29.85"   Gusts: NA
Location:  53.1°N, 1.03°W
Report Text: EGXW 220150Z 15012KT 3000 BR OVC003 08/08 Q1011 YLO2
Loading
Personal Weather Stations






























Interactive Weather Map New forecast layout! Learn more

10-Day Weather Forecast

Advertisements
Track Severe Weather on mobile